createdAt,value
2017-08-18T00:01:50.591Z,99.90
2017-08-18T00:04:19.886Z,99.90
2017-08-18T00:06:48.427Z,99.90
2017-08-18T00:09:17.217Z,99.90
2017-08-18T00:11:45.747Z,99.90
2017-08-18T00:14:15.166Z,99.90
2017-08-18T00:16:43.631Z,99.90
2017-08-18T00:19:14.298Z,99.90
2017-08-18T00:21:42.914Z,99.90
2017-08-18T00:24:11.491Z,99.90
2017-08-18T00:26:40.014Z,99.90
2017-08-18T00:29:08.565Z,99.90
2017-08-18T00:31:37.143Z,99.90
2017-08-18T00:34:06.557Z,99.90
2017-08-18T00:36:34.970Z,99.90
2017-08-18T00:39:03.314Z,99.80
2017-08-18T00:41:32.170Z,99.50
2017-08-18T00:44:00.569Z,99.30
2017-08-18T00:46:29.178Z,99.00
2017-08-18T00:48:57.894Z,98.60
2017-08-18T00:51:26.610Z,98.70
2017-08-18T00:53:55.878Z,98.60
2017-08-18T00:56:24.707Z,98.60
2017-08-18T00:58:53.108Z,98.60
2017-08-18T01:01:21.734Z,98.70
2017-08-18T01:03:49.867Z,98.40
2017-08-18T01:06:18.077Z,98.30
2017-08-18T01:08:46.706Z,98.20
2017-08-18T01:11:15.945Z,97.90
2017-08-18T01:13:44.694Z,97.90
2017-08-18T01:16:13.096Z,97.90
2017-08-18T01:18:41.807Z,97.80
2017-08-18T01:21:10.488Z,97.90
2017-08-18T01:23:38.514Z,98.00
2017-08-18T01:26:07.870Z,98.30
2017-08-18T01:28:36.454Z,98.30
2017-08-18T01:31:05.062Z,98.30
2017-08-18T01:33:33.890Z,98.60
2017-08-18T01:36:02.286Z,98.70
2017-08-18T01:38:30.311Z,98.90
2017-08-18T01:40:58.874Z,99.00
2017-08-18T01:43:27.347Z,99.00
2017-08-18T01:45:55.993Z,98.80
2017-08-18T01:48:24.510Z,98.90
2017-08-18T01:50:53.099Z,99.00
2017-08-18T01:53:21.118Z,99.00
2017-08-18T01:55:50.778Z,99.10
2017-08-18T01:58:19.457Z,99.00
2017-08-18T02:00:47.854Z,99.00
2017-08-18T02:03:16.642Z,99.00
2017-08-18T02:05:45.126Z,99.10
2017-08-18T02:08:13.634Z,99.00
2017-08-18T02:10:41.827Z,99.00
2017-08-18T02:13:11.491Z,99.10
2017-08-18T02:15:40.103Z,99.10
2017-08-18T02:18:09.034Z,98.90
2017-08-18T02:20:37.425Z,98.90
2017-08-18T02:23:05.937Z,98.90
2017-08-18T02:25:34.746Z,98.90
2017-08-18T02:28:03.473Z,98.80
2017-08-18T02:30:31.826Z,98.70
2017-08-18T02:33:00.582Z,98.70
2017-08-18T02:35:29.223Z,98.70
2017-08-18T02:37:57.843Z,98.60
2017-08-18T02:40:27.491Z,98.50
2017-08-18T02:42:56.238Z,98.40
2017-08-18T02:45:24.276Z,98.30
2017-08-18T02:47:53.767Z,98.10
2017-08-18T02:50:23.324Z,98.00
2017-08-18T02:52:51.352Z,98.10
2017-08-18T02:55:20.747Z,97.80
2017-08-18T02:57:49.349Z,97.80
2017-08-18T03:00:18.705Z,97.10
2017-08-18T03:02:46.731Z,97.00
2017-08-18T03:05:15.258Z,96.90
2017-08-18T03:07:43.942Z,96.60
2017-08-18T03:10:12.590Z,96.40
2017-08-18T03:12:40.602Z,96.10
2017-08-18T03:15:09.726Z,96.00
2017-08-18T03:17:38.370Z,95.80
2017-08-18T03:20:06.849Z,95.70
2017-08-18T03:22:35.555Z,95.40
2017-08-18T03:25:05.046Z,95.30
2017-08-18T03:27:33.071Z,95.10
2017-08-18T03:30:01.260Z,95.00
2017-08-18T03:32:29.313Z,94.90
2017-08-18T03:34:57.346Z,94.70
2017-08-18T03:37:25.566Z,94.40
2017-08-18T03:39:53.574Z,94.10
2017-08-18T03:42:22.070Z,93.80
2017-08-18T03:44:50.801Z,93.70
2017-08-18T03:47:19.382Z,93.50
2017-08-18T03:49:47.950Z,93.50
2017-08-18T03:52:16.558Z,93.20
2017-08-18T03:54:45.106Z,93.00
2017-08-18T03:57:13.999Z,92.60
2017-08-18T03:59:42.114Z,92.50
2017-08-18T04:02:11.306Z,92.60
2017-08-18T04:04:39.882Z,92.20
2017-08-18T04:07:08.706Z,92.10
2017-08-18T04:09:37.974Z,91.50
2017-08-18T04:12:06.624Z,91.50
2017-08-18T04:14:35.155Z,91.10
2017-08-18T04:17:04.018Z,90.00
2017-08-18T04:19:32.624Z,89.40
2017-08-18T04:22:01.167Z,88.90
2017-08-18T04:24:29.191Z,86.50
2017-08-18T04:26:58.387Z,83.80
2017-08-18T04:29:27.139Z,83.10
2017-08-18T04:31:55.175Z,81.00
2017-08-18T04:34:23.187Z,78.20
2017-08-18T04:36:51.909Z,74.60
2017-08-18T04:39:20.958Z,67.60
2017-08-18T04:41:49.552Z,67.50
2017-08-18T04:44:18.265Z,65.20
2017-08-18T04:46:47.198Z,64.90
2017-08-18T04:49:15.612Z,66.00
2017-08-18T04:51:44.335Z,66.40
2017-08-18T04:54:12.914Z,67.20
2017-08-18T04:56:41.634Z,66.80
2017-08-18T04:59:10.122Z,64.00
2017-08-18T05:01:38.642Z,60.90
2017-08-18T05:04:07.333Z,58.90
2017-08-18T05:06:36.186Z,58.00
2017-08-18T05:09:04.850Z,57.30
2017-08-18T05:11:32.878Z,58.10
2017-08-18T05:14:01.766Z,58.10
2017-08-18T05:16:30.445Z,57.70
2017-08-18T05:18:59.178Z,59.50
2017-08-18T05:21:28.646Z,63.00
2017-08-18T05:23:57.427Z,62.50
2017-08-18T05:26:25.850Z,60.20
2017-08-18T05:28:54.434Z,59.00
2017-08-18T05:31:23.158Z,58.10
2017-08-18T05:33:51.556Z,56.20
2017-08-18T05:36:20.262Z,55.40
2017-08-18T05:38:48.945Z,54.40
2017-08-18T05:41:17.705Z,53.40
2017-08-18T05:43:46.395Z,53.10
2017-08-18T05:46:14.838Z,53.00
2017-08-18T05:48:43.491Z,54.10
2017-08-18T05:51:12.387Z,54.70
2017-08-18T05:53:41.064Z,55.70
2017-08-18T05:56:09.594Z,55.90
2017-08-18T05:58:38.819Z,54.20
2017-08-18T06:01:07.242Z,54.00
2017-08-18T06:03:35.989Z,54.70
2017-08-18T06:06:04.475Z,53.10
2017-08-18T06:08:33.018Z,51.40
2017-08-18T06:11:01.738Z,52.00
2017-08-18T06:13:31.285Z,53.70
2017-08-18T06:15:59.971Z,53.80
2017-08-18T06:18:28.650Z,52.70
2017-08-18T06:20:57.131Z,52.60
2017-08-18T06:23:25.733Z,52.10
2017-08-18T06:25:54.242Z,52.60
2017-08-18T06:28:22.762Z,53.30
2017-08-18T06:30:50.799Z,53.80
2017-08-18T06:33:19.286Z,54.00
2017-08-18T06:35:48.514Z,53.60
2017-08-18T06:38:16.967Z,53.10
2017-08-18T06:40:46.134Z,57.40
2017-08-18T06:43:14.847Z,57.10
2017-08-18T06:45:43.214Z,57.60
2017-08-18T06:48:11.891Z,57.60
2017-08-18T06:50:40.397Z,57.30
2017-08-18T06:53:09.222Z,57.50
2017-08-18T06:55:37.670Z,57.60
2017-08-18T06:58:06.224Z,57.80
2017-08-18T07:00:35.076Z,57.30
2017-08-18T07:03:03.475Z,57.50
2017-08-18T07:05:31.910Z,57.50
2017-08-18T07:08:00.663Z,56.60
2017-08-18T07:10:29.443Z,57.10
2017-08-18T07:12:58.511Z,57.10
2017-08-18T07:15:26.997Z,57.40
2017-08-18T07:17:55.523Z,57.70
2017-08-18T07:20:24.167Z,59.30
2017-08-18T07:22:53.199Z,58.80
2017-08-18T07:25:21.213Z,58.90
2017-08-18T07:27:49.246Z,56.80
2017-08-18T07:30:17.992Z,56.10
2017-08-18T07:32:46.546Z,53.80
2017-08-18T07:35:15.279Z,52.70
2017-08-18T07:37:44.266Z,52.90
2017-08-18T07:40:12.666Z,51.30
2017-08-18T07:42:40.808Z,53.00
2017-08-18T07:45:09.306Z,54.00
2017-08-18T07:47:37.819Z,54.50
2017-08-18T07:50:06.431Z,55.30
2017-08-18T07:52:35.300Z,56.40
2017-08-18T07:55:04.077Z,57.50
2017-08-18T07:57:32.501Z,58.50
2017-08-18T08:00:01.194Z,58.10
2017-08-18T08:02:30.555Z,58.90
2017-08-18T08:04:59.101Z,58.90
2017-08-18T08:07:27.587Z,60.10
2017-08-18T08:09:56.069Z,58.70
2017-08-18T08:12:24.691Z,61.70
2017-08-18T08:14:52.823Z,60.40
2017-08-18T08:17:21.378Z,61.60
2017-08-18T08:19:49.410Z,60.20
2017-08-18T08:22:18.238Z,60.60
2017-08-18T08:24:47.130Z,59.10
2017-08-18T08:27:15.154Z,61.30
2017-08-18T08:29:43.922Z,62.90
2017-08-18T08:32:13.147Z,63.50
2017-08-18T08:34:41.754Z,63.50
2017-08-18T08:37:10.570Z,61.60
2017-08-18T08:39:39.318Z,65.80
2017-08-18T08:42:07.878Z,64.50
2017-08-18T08:44:36.606Z,64.60
2017-08-18T08:47:05.082Z,65.50
2017-08-18T08:49:33.543Z,63.40
2017-08-18T08:52:02.154Z,64.60
2017-08-18T08:54:30.766Z,63.30
2017-08-18T08:56:59.412Z,63.40
2017-08-18T08:59:27.554Z,63.50
2017-08-18T09:01:56.182Z,64.70
2017-08-18T09:04:24.662Z,64.20
2017-08-18T09:06:52.792Z,64.20
2017-08-18T09:09:20.846Z,66.50
2017-08-18T09:11:48.911Z,66.30
2017-08-18T09:14:17.096Z,64.10
2017-08-18T09:16:45.586Z,65.90
2017-08-18T09:19:15.036Z,62.90
2017-08-18T09:21:43.694Z,63.00
2017-08-18T09:24:12.428Z,64.90
2017-08-18T09:26:41.554Z,63.20
2017-08-18T09:29:10.306Z,61.10
2017-08-18T09:31:39.062Z,59.20
2017-08-18T09:34:07.482Z,60.80
2017-08-18T09:36:36.271Z,61.50
2017-08-18T09:39:04.582Z,60.70
2017-08-18T09:41:32.614Z,61.00
2017-08-18T09:44:01.307Z,59.80
2017-08-18T09:46:29.342Z,59.70
2017-08-18T09:49:08.867Z,59.80
2017-08-18T09:51:49.373Z,60.00
2017-08-18T09:54:30.451Z,58.80
2017-08-18T09:57:11.226Z,60.00
2017-08-18T09:59:40.649Z,60.50
2017-08-18T10:02:09.218Z,60.40
2017-08-18T10:04:37.999Z,61.30
2017-08-18T10:07:06.558Z,60.30
2017-08-18T10:09:35.090Z,60.80
2017-08-18T10:12:03.762Z,59.60
2017-08-18T10:14:32.622Z,61.90
2017-08-18T10:17:02.266Z,60.20
2017-08-18T10:19:30.852Z,60.70
2017-08-18T10:21:59.702Z,63.00
2017-08-18T10:24:28.801Z,59.30
2017-08-18T10:26:56.862Z,62.30
2017-08-18T10:29:24.987Z,62.70
2017-08-18T10:31:53.498Z,60.80
2017-08-18T10:34:22.067Z,60.80
2017-08-18T10:36:50.832Z,62.40
2017-08-18T10:39:19.305Z,60.00
2017-08-18T10:41:47.914Z,61.80
2017-08-18T10:44:16.804Z,60.80
2017-08-18T10:46:44.859Z,60.20
2017-08-18T10:49:13.462Z,59.70
2017-08-18T10:51:42.318Z,59.70
2017-08-18T10:54:10.632Z,59.30
2017-08-18T10:56:39.047Z,58.80
2017-08-18T10:59:08.402Z,59.70
2017-08-18T11:01:37.102Z,59.70
2017-08-18T11:04:05.138Z,60.90
2017-08-18T11:06:33.262Z,62.30
2017-08-18T11:09:01.763Z,62.50
2017-08-18T11:11:30.326Z,63.30
2017-08-18T11:13:59.310Z,63.70
2017-08-18T11:16:28.099Z,66.20
2017-08-18T11:18:56.142Z,67.10
2017-08-18T11:21:24.451Z,67.40
2017-08-18T11:23:53.233Z,70.40
2017-08-18T11:26:21.855Z,71.10
2017-08-18T11:28:50.556Z,69.60
2017-08-18T11:31:19.795Z,70.80
2017-08-18T11:33:47.839Z,70.70
2017-08-18T11:36:17.258Z,72.80
2017-08-18T11:38:45.973Z,72.80
2017-08-18T11:41:14.398Z,75.20
2017-08-18T11:43:42.519Z,76.20
2017-08-18T11:46:10.570Z,76.50
2017-08-18T11:48:39.120Z,74.90
2017-08-18T11:51:07.979Z,78.00
2017-08-18T11:53:36.014Z,76.90
2017-08-18T11:56:04.698Z,77.10
2017-08-18T11:58:33.202Z,76.90
2017-08-18T12:01:02.551Z,78.60
2017-08-18T12:03:31.039Z,79.00
2017-08-18T12:05:59.800Z,80.00
2017-08-18T12:08:28.472Z,81.70
2017-08-18T12:10:56.895Z,79.90
2017-08-18T12:13:25.550Z,78.40
2017-08-18T12:15:53.591Z,81.20
2017-08-18T12:18:22.691Z,83.90
2017-08-18T12:20:52.150Z,81.70
2017-08-18T12:23:20.642Z,83.20
2017-08-18T12:25:49.403Z,82.80
2017-08-18T12:28:18.191Z,80.30
2017-08-18T12:30:46.759Z,81.90
2017-08-18T12:33:15.426Z,81.70
2017-08-18T12:35:44.046Z,82.30
2017-08-18T12:38:12.690Z,81.40
2017-08-18T12:40:41.355Z,80.00
2017-08-18T12:43:10.683Z,84.80
2017-08-18T12:45:39.367Z,84.10
2017-08-18T12:48:08.159Z,81.80
2017-08-18T12:50:36.778Z,85.60
2017-08-18T12:53:05.262Z,84.30
2017-08-18T12:55:33.408Z,86.40
2017-08-18T12:58:02.028Z,82.80
2017-08-18T13:00:30.699Z,83.00
2017-08-18T13:02:59.227Z,82.00
2017-08-18T13:05:27.706Z,83.40
2017-08-18T13:07:55.731Z,83.40
2017-08-18T13:10:24.350Z,85.30
2017-08-18T13:12:53.009Z,85.10
2017-08-18T13:15:21.539Z,85.00
2017-08-18T13:17:49.783Z,86.70
2017-08-18T13:20:18.431Z,87.20
2017-08-18T13:22:48.078Z,84.30
2017-08-18T13:25:16.723Z,84.20
2017-08-18T13:27:45.411Z,86.00
2017-08-18T13:30:13.938Z,85.80
2017-08-18T13:32:42.650Z,87.80
2017-08-18T13:35:11.370Z,90.20
2017-08-18T13:37:40.088Z,90.50
2017-08-18T13:40:09.714Z,89.00
2017-08-18T13:42:45.362Z,89.00
2017-08-18T13:45:14.630Z,89.20
2017-08-18T13:47:43.155Z,88.90
2017-08-18T13:50:11.894Z,85.80
2017-08-18T13:52:40.014Z,89.30
2017-08-18T13:55:08.551Z,90.40
2017-08-18T13:57:36.951Z,90.90
2017-08-18T14:00:05.696Z,90.30
2017-08-18T14:02:34.940Z,89.70
2017-08-18T14:05:02.955Z,89.60
2017-08-18T14:07:31.414Z,90.40
2017-08-18T14:09:59.996Z,91.30
2017-08-18T14:12:28.582Z,91.20
2017-08-18T14:14:56.706Z,90.80
2017-08-18T14:17:25.929Z,90.80
2017-08-18T14:19:54.461Z,90.80
2017-08-18T14:22:23.326Z,90.90
2017-08-18T14:24:57.392Z,91.40
2017-08-18T14:27:32.880Z,91.70
2017-08-18T14:30:01.501Z,91.60
2017-08-18T14:32:30.158Z,91.90
2017-08-18T14:34:58.944Z,92.30
2017-08-18T14:37:27.435Z,92.30
2017-08-18T14:39:56.037Z,92.10
2017-08-18T14:42:24.771Z,92.50
2017-08-18T14:44:53.455Z,92.50
2017-08-18T14:47:22.998Z,92.70
2017-08-18T14:49:51.164Z,92.60
2017-08-18T14:52:19.766Z,92.40
2017-08-18T14:54:48.446Z,92.40
2017-08-18T14:57:17.342Z,92.60
2017-08-18T14:59:46.120Z,92.90
2017-08-18T15:02:14.600Z,93.30
2017-08-18T15:04:43.330Z,93.30
2017-08-18T15:07:11.987Z,93.10
2017-08-18T15:09:40.664Z,92.90
2017-08-18T15:12:09.123Z,92.90
2017-08-18T15:14:37.670Z,93.30
2017-08-18T15:17:06.424Z,93.90
2017-08-18T15:19:35.012Z,94.10
2017-08-18T15:22:03.498Z,93.90
2017-08-18T15:24:32.111Z,93.60
2017-08-18T15:27:00.630Z,93.60
2017-08-18T15:29:29.390Z,93.40
2017-08-18T15:31:57.402Z,93.10
2017-08-18T15:34:25.538Z,93.30
2017-08-18T15:36:54.252Z,92.50
2017-08-18T15:39:22.659Z,92.80
2017-08-18T15:41:51.267Z,92.50
2017-08-18T15:44:19.939Z,92.40
2017-08-18T15:46:48.720Z,91.70
2017-08-18T15:49:17.286Z,91.80
2017-08-18T15:51:45.831Z,91.50
2017-08-18T15:54:14.546Z,91.70
2017-08-18T15:56:43.582Z,92.70
2017-08-18T15:59:12.361Z,93.90
2017-08-18T16:01:40.394Z,94.80
2017-08-18T16:04:09.753Z,97.00
2017-08-18T16:06:38.359Z,97.00
2017-08-18T16:09:07.084Z,97.10
2017-08-18T16:11:35.650Z,97.00
2017-08-18T16:14:05.070Z,97.10
2017-08-18T16:16:33.468Z,97.00
2017-08-18T16:19:02.182Z,97.60
2017-08-18T16:21:30.660Z,98.20
2017-08-18T16:23:59.070Z,98.40
2017-08-18T16:26:27.866Z,98.90
2017-08-18T16:28:57.106Z,99.30
2017-08-18T16:31:26.362Z,99.60
2017-08-18T16:33:55.023Z,99.50
2017-08-18T16:36:23.635Z,99.50
2017-08-18T16:38:52.354Z,99.50
2017-08-18T16:41:21.051Z,99.70
2017-08-18T16:43:49.853Z,99.80
2017-08-18T16:46:18.359Z,99.10
2017-08-18T16:48:47.170Z,98.40
2017-08-18T16:51:15.206Z,97.80
2017-08-18T16:53:43.827Z,97.60
2017-08-18T16:56:12.690Z,97.70
2017-08-18T16:58:41.502Z,97.60
2017-08-18T17:01:09.742Z,97.70
2017-08-18T17:03:38.070Z,98.10
2017-08-18T17:06:06.522Z,98.60
2017-08-18T17:08:35.135Z,98.80
2017-08-18T17:11:03.244Z,98.80
2017-08-18T17:13:31.867Z,98.80
2017-08-18T17:16:00.544Z,99.00
2017-08-18T17:18:28.735Z,99.20
2017-08-18T17:20:56.759Z,99.50
2017-08-18T17:23:25.178Z,99.90
2017-08-18T17:25:53.894Z,99.90
2017-08-18T17:28:22.614Z,99.90
2017-08-18T17:30:50.842Z,99.90
2017-08-18T17:33:20.139Z,99.90
2017-08-18T17:35:49.415Z,99.90
2017-08-18T17:38:18.019Z,99.90
2017-08-18T17:40:46.843Z,99.90
2017-08-18T17:43:15.591Z,99.90
2017-08-18T17:45:44.058Z,99.90
2017-08-18T17:48:12.799Z,99.90
2017-08-18T17:50:41.383Z,99.90
2017-08-18T17:53:10.029Z,99.90
2017-08-18T17:55:38.824Z,99.90
2017-08-18T17:58:08.399Z,99.90
2017-08-18T18:00:36.750Z,99.90
2017-08-18T18:03:05.410Z,99.90
2017-08-18T18:05:34.018Z,99.90
2017-08-18T18:08:02.766Z,99.90
2017-08-18T18:10:31.428Z,99.90
2017-08-18T18:12:59.446Z,99.90
2017-08-18T18:15:27.894Z,99.90
2017-08-18T18:17:56.605Z,99.90
2017-08-18T18:20:25.429Z,99.90
2017-08-18T18:22:53.975Z,99.90
2017-08-18T18:25:22.527Z,99.90
2017-08-18T18:27:50.554Z,99.90
2017-08-18T18:30:18.951Z,99.90
2017-08-18T18:32:47.083Z,99.90
2017-08-18T18:35:15.659Z,99.90
2017-08-18T18:37:43.690Z,99.90
2017-08-18T18:40:11.839Z,99.90
2017-08-18T18:42:40.407Z,99.90
2017-08-18T18:45:08.458Z,99.90
2017-08-18T18:47:38.202Z,99.90
2017-08-18T18:50:06.674Z,99.90
2017-08-18T18:52:35.262Z,99.90
2017-08-18T18:55:04.046Z,99.90
2017-08-18T18:57:32.802Z,99.90
2017-08-18T19:00:01.213Z,99.90
2017-08-18T19:02:30.039Z,99.90
2017-08-18T19:04:58.618Z,99.90
2017-08-18T19:07:27.347Z,99.90
2017-08-18T19:09:56.118Z,99.90
2017-08-18T19:12:25.462Z,99.90
2017-08-18T19:14:53.930Z,99.90
2017-08-18T19:17:22.573Z,99.90
2017-08-18T19:19:51.226Z,99.90
2017-08-18T19:22:19.698Z,99.90
2017-08-18T19:24:49.214Z,99.90
2017-08-18T19:27:17.966Z,99.90
2017-08-18T19:29:46.366Z,99.90
2017-08-18T19:32:15.546Z,99.90
2017-08-18T19:34:44.070Z,99.90
2017-08-18T19:37:12.616Z,99.90
2017-08-18T19:39:41.099Z,99.90
2017-08-18T19:42:09.723Z,99.90
2017-08-18T19:44:38.335Z,99.90
2017-08-18T19:47:07.258Z,99.90
2017-08-18T19:49:35.564Z,99.90
2017-08-18T19:52:04.162Z,99.90
2017-08-18T19:54:32.320Z,99.90
2017-08-18T19:57:00.926Z,99.90
2017-08-18T19:59:29.540Z,99.90
2017-08-18T20:01:58.398Z,99.90
2017-08-18T20:04:26.818Z,99.90
2017-08-18T20:06:55.370Z,99.90
2017-08-18T20:09:24.254Z,99.90
2017-08-18T20:11:53.007Z,99.90
2017-08-18T20:14:21.416Z,99.90
2017-08-18T20:16:50.117Z,99.90
2017-08-18T20:19:18.805Z,99.90
2017-08-18T20:21:47.551Z,99.90
2017-08-18T20:24:15.935Z,99.90
2017-08-18T20:26:43.990Z,99.90
2017-08-18T20:29:13.369Z,99.90
2017-08-18T20:31:41.976Z,99.90
2017-08-18T20:34:11.670Z,99.90
2017-08-18T20:36:39.713Z,99.90
2017-08-18T20:39:08.510Z,99.90
2017-08-18T20:41:37.119Z,99.90
2017-08-18T20:44:05.842Z,99.90
2017-08-18T20:46:34.279Z,99.90
2017-08-18T20:49:02.638Z,99.90
2017-08-18T20:51:31.316Z,99.90
2017-08-18T20:53:59.986Z,99.90
2017-08-18T20:56:28.545Z,99.90
2017-08-18T20:58:57.702Z,99.90
2017-08-18T21:01:26.410Z,99.90
2017-08-18T21:03:54.798Z,99.90
2017-08-18T21:06:23.350Z,99.90
2017-08-18T21:08:52.063Z,99.90
2017-08-18T21:11:20.496Z,99.90
2017-08-18T21:13:49.007Z,99.90
2017-08-18T21:16:17.819Z,99.90
2017-08-18T21:18:46.539Z,99.90
2017-08-18T21:21:14.990Z,99.90
2017-08-18T21:23:43.747Z,99.90
2017-08-18T21:26:12.330Z,99.90
2017-08-18T21:28:41.091Z,99.90
2017-08-18T21:31:09.902Z,99.90
2017-08-18T21:33:38.426Z,99.90
2017-08-18T21:36:07.186Z,99.90
2017-08-18T21:38:35.970Z,99.90
2017-08-18T21:41:04.722Z,99.90
2017-08-18T21:43:33.134Z,99.90
2017-08-18T21:46:01.731Z,99.90
2017-08-18T21:48:30.415Z,99.90
2017-08-18T21:50:59.092Z,99.90
2017-08-18T21:53:27.727Z,99.90
2017-08-18T21:55:56.878Z,99.90
2017-08-18T21:58:25.478Z,99.90
2017-08-18T22:00:54.262Z,99.90
2017-08-18T22:03:22.914Z,99.90
2017-08-18T22:05:51.313Z,99.90
2017-08-18T22:08:19.634Z,99.90
2017-08-18T22:10:48.358Z,99.90
2017-08-18T22:13:16.768Z,99.90
2017-08-18T22:15:45.370Z,99.90
2017-08-18T22:18:13.842Z,99.90
2017-08-18T22:20:42.623Z,99.90
2017-08-18T22:23:11.210Z,99.90
2017-08-18T22:25:39.806Z,99.90
2017-08-18T22:28:08.421Z,99.90
2017-08-18T22:30:36.946Z,99.90
2017-08-18T22:33:05.470Z,99.90
2017-08-18T22:35:34.071Z,99.90
2017-08-18T22:38:03.063Z,99.90
2017-08-18T22:40:31.817Z,99.90
2017-08-18T22:43:00.287Z,99.90
2017-08-18T22:45:28.999Z,99.90
2017-08-18T22:47:58.326Z,99.90
2017-08-18T22:50:26.806Z,99.90
2017-08-18T22:52:54.937Z,99.90
2017-08-18T22:55:23.562Z,99.90
2017-08-18T22:57:51.606Z,99.90
2017-08-18T23:00:20.995Z,99.90
2017-08-18T23:02:49.154Z,99.90
2017-08-18T23:05:17.698Z,99.90
2017-08-18T23:07:46.562Z,99.90
2017-08-18T23:10:15.241Z,99.90
2017-08-18T23:12:43.774Z,99.90
2017-08-18T23:15:12.532Z,99.90
2017-08-18T23:17:41.171Z,99.90
2017-08-18T23:20:09.578Z,99.90
2017-08-18T23:22:38.182Z,99.90
2017-08-18T23:25:06.765Z,99.90
2017-08-18T23:27:35.540Z,99.90
2017-08-18T23:30:04.102Z,99.90
2017-08-18T23:32:32.646Z,99.90
2017-08-18T23:35:01.397Z,99.90
2017-08-18T23:37:29.958Z,99.90
2017-08-18T23:39:58.822Z,99.90
2017-08-18T23:42:27.969Z,99.90
2017-08-18T23:44:56.083Z,99.90
2017-08-18T23:47:24.520Z,99.90
2017-08-18T23:49:53.126Z,99.90
2017-08-18T23:52:21.838Z,99.90
2017-08-18T23:54:50.486Z,99.90
2017-08-18T23:57:18.968Z,99.90
2017-08-18T23:59:47.089Z,99.90
